createdAt,value
2023-04-11T00:02:08.883Z,11.40
2023-04-11T00:07:11.061Z,11.31
2023-04-11T00:12:13.329Z,11.28
2023-04-11T00:17:16.972Z,11.32
2023-04-11T00:22:19.450Z,11.28
2023-04-11T00:27:22.047Z,11.20
2023-04-11T00:32:25.668Z,11.19
2023-04-11T00:37:27.885Z,11.14
2023-04-11T00:42:29.987Z,11.17
2023-04-11T00:47:34.249Z,11.17
2023-04-11T00:52:39.402Z,11.13
2023-04-11T00:57:42.290Z,11.08
2023-04-11T01:02:45.744Z,10.98
2023-04-11T01:07:52.534Z,10.96
2023-04-11T01:12:55.861Z,10.99
2023-04-11T01:17:59.980Z,11.03
2023-04-11T01:23:02.674Z,11.02
2023-04-11T01:28:06.451Z,11.07
2023-04-11T01:33:08.609Z,11.05
2023-04-11T01:38:11.575Z,11.03
2023-04-11T01:43:15.005Z,10.91
2023-04-11T01:48:16.944Z,10.86
2023-04-11T01:53:19.166Z,10.91
2023-04-11T01:58:22.635Z,10.93
2023-04-11T02:03:25.070Z,10.89
2023-04-11T02:08:27.492Z,10.86
2023-04-11T02:13:30.914Z,10.73
2023-04-11T02:18:32.974Z,10.78
2023-04-11T02:23:35.189Z,10.71
2023-04-11T02:28:38.303Z,10.70
2023-04-11T02:33:40.348Z,10.63
2023-04-11T02:38:42.387Z,10.69
2023-04-11T02:43:46.123Z,10.80
2023-04-11T02:48:48.212Z,10.71
2023-04-11T02:53:50.262Z,10.71
2023-04-11T02:58:53.987Z,10.62
2023-04-11T03:03:56.637Z,10.61
2023-04-11T03:08:58.746Z,10.61
2023-04-11T03:14:02.709Z,10.64
2023-04-11T03:19:04.686Z,10.65
2023-04-11T03:24:07.183Z,10.71
2023-04-11T03:29:10.740Z,10.72
2023-04-11T03:34:12.815Z,10.68
2023-04-11T03:39:15.157Z,10.67
2023-04-11T03:44:18.570Z,10.66
2023-04-11T03:49:20.758Z,10.57
2023-04-11T03:54:22.823Z,10.45
2023-04-11T03:59:26.335Z,10.02
2023-04-11T04:04:28.885Z,9.54
2023-04-11T04:09:31.085Z,8.93
2023-04-11T04:14:34.569Z,8.67
2023-04-11T04:19:36.593Z,8.46
2023-04-11T04:24:38.602Z,8.44
2023-04-11T04:29:45.328Z,8.28
2023-04-11T04:34:50.728Z,8.21
2023-04-11T04:39:53.662Z,8.13
2023-04-11T04:44:57.262Z,8.12
2023-04-11T04:49:59.957Z,8.06
2023-04-11T04:55:01.826Z,8.01
2023-04-11T05:00:06.851Z,8.00
2023-04-11T05:05:09.490Z,7.91
2023-04-11T05:10:11.678Z,7.90
2023-04-11T05:15:15.921Z,7.95
2023-04-11T05:20:17.921Z,7.92
2023-04-11T05:25:23.101Z,7.87
2023-04-11T05:30:26.642Z,7.91
2023-04-11T05:35:29.994Z,7.95
2023-04-11T05:40:31.924Z,7.98
2023-04-11T05:45:35.322Z,8.07
2023-04-11T05:50:37.429Z,8.22
2023-04-11T05:55:39.416Z,8.30
2023-04-11T06:00:42.942Z,8.48
2023-04-11T06:05:45.412Z,8.67
2023-04-11T06:10:47.143Z,8.84
2023-04-11T06:15:50.521Z,8.77
2023-04-11T06:20:52.246Z,8.74
2023-04-11T06:25:54.077Z,8.72
2023-04-11T06:30:57.564Z,8.67
2023-04-11T06:35:59.721Z,8.74
2023-04-11T06:41:02.398Z,8.81
2023-04-11T06:46:06.069Z,8.86
2023-04-11T06:51:07.989Z,8.91
2023-04-11T06:56:10.534Z,9.09
2023-04-11T07:01:13.868Z,9.33
2023-04-11T07:06:16.035Z,9.40
2023-04-11T07:11:19.145Z,9.49
2023-04-11T07:16:23.789Z,9.40
2023-04-11T07:21:25.778Z,9.40
2023-04-11T07:26:27.975Z,9.47
2023-04-11T07:31:31.692Z,9.49
2023-04-11T07:36:34.113Z,9.56
2023-04-11T07:41:36.905Z,9.66
2023-04-11T07:46:40.287Z,9.71
2023-04-11T07:51:42.324Z,9.72
2023-04-11T07:56:44.330Z,9.65
2023-04-11T08:01:58.754Z,9.79
2023-04-11T08:07:00.960Z,9.77
2023-04-11T08:12:02.981Z,9.60
2023-04-11T08:17:14.663Z,9.82
2023-04-11T08:22:24.452Z,9.88
2023-04-11T08:27:26.207Z,9.61
2023-04-11T08:32:29.654Z,9.46
2023-04-11T08:37:32.632Z,9.22
2023-04-11T08:42:35.362Z,9.38
2023-04-11T08:47:38.537Z,9.65
2023-04-11T08:52:42.479Z,9.96
2023-04-11T08:57:46.449Z,10.28
2023-04-11T09:02:57.588Z,10.57
2023-04-11T09:08:01.495Z,11.13
2023-04-11T09:13:19.379Z,10.76
2023-04-11T09:18:33.482Z,11.44
2023-04-11T09:23:36.358Z,12.17
2023-04-11T09:28:43.007Z,12.35
2023-04-11T09:33:54.847Z,12.24
2023-04-11T09:38:57.947Z,15.16
2023-04-11T09:44:00.886Z,17.54
2023-04-11T09:49:04.255Z,19.85
2023-04-11T09:54:07.004Z,20.61
2023-04-11T09:59:09.256Z,18.60
2023-04-11T10:04:12.692Z,20.52
2023-04-11T10:09:19.238Z,17.81
2023-04-11T10:14:43.672Z,16.39
2023-04-11T10:19:47.135Z,16.23
2023-04-11T10:25:16.313Z,13.56
2023-04-11T10:30:18.432Z,12.51
2023-04-11T10:35:24.939Z,11.41
2023-04-11T10:40:26.678Z,11.16
2023-04-11T10:45:29.589Z,10.74
2023-04-11T10:50:37.955Z,13.19
2023-04-11T10:55:51.165Z,16.13
2023-04-11T11:01:26.118Z,15.61
2023-04-11T11:06:46.611Z,13.93
2023-04-11T11:12:05.158Z,12.94
2023-04-11T11:17:07.360Z,13.35
2023-04-11T11:22:15.856Z,13.64
2023-04-11T11:27:19.845Z,14.33
2023-04-11T11:32:22.921Z,14.36
2023-04-11T11:37:26.379Z,13.77
2023-04-11T11:42:28.608Z,14.37
2023-04-11T11:47:41.280Z,14.59
2023-04-11T11:52:44.542Z,14.42
2023-04-11T11:57:47.848Z,14.61
2023-04-11T12:02:52.724Z,14.23
2023-04-11T12:07:57.340Z,13.67
2023-04-11T12:12:59.516Z,14.79
2023-04-11T12:18:01.471Z,13.94
2023-04-11T12:23:04.599Z,13.92
2023-04-11T12:28:06.522Z,14.16
2023-04-11T12:33:08.554Z,13.43
2023-04-11T12:38:15.034Z,13.84
2023-04-11T12:43:20.127Z,14.72
2023-04-11T12:48:22.133Z,14.75
2023-04-11T12:53:25.210Z,13.91
2023-04-11T12:58:27.601Z,11.05
2023-04-11T13:03:29.562Z,9.79
2023-04-11T13:08:33.147Z,8.70
2023-04-11T13:13:35.110Z,8.36
2023-04-11T13:18:37.456Z,8.22
2023-04-11T13:23:40.842Z,8.28
2023-04-11T13:28:42.621Z,8.45
2023-04-11T13:33:44.659Z,8.51
2023-04-11T13:38:50.602Z,8.74
2023-04-11T13:43:52.921Z,8.55
2023-04-11T13:48:57.249Z,8.90
2023-04-11T13:54:02.706Z,9.57
2023-04-11T13:59:04.650Z,9.37
2023-04-11T14:04:06.900Z,8.47
2023-04-11T14:09:10.474Z,8.56
2023-04-11T14:14:12.422Z,8.99
2023-04-11T14:19:14.143Z,9.26
2023-04-11T14:24:17.427Z,9.37
2023-04-11T14:29:21.003Z,10.14
2023-04-11T14:34:24.131Z,10.26
2023-04-11T14:39:27.678Z,10.73
2023-04-11T14:44:29.907Z,10.33
2023-04-11T14:49:32.137Z,10.19
2023-04-11T14:54:35.280Z,10.01
2023-04-11T14:59:37.008Z,9.67
2023-04-11T15:04:38.776Z,9.61
2023-04-11T15:09:42.267Z,9.50
2023-04-11T15:14:45.258Z,10.49
2023-04-11T15:19:50.303Z,10.59
2023-04-11T15:24:53.682Z,10.71
2023-04-11T15:30:04.425Z,10.61
2023-04-11T15:35:06.975Z,11.25
2023-04-11T15:40:11.316Z,11.65
2023-04-11T15:45:13.276Z,11.56
2023-04-11T15:50:15.603Z,11.09
2023-04-11T15:55:18.913Z,10.29
2023-04-11T16:00:21.489Z,10.06
2023-04-11T16:05:25.269Z,9.39
2023-04-11T16:10:28.806Z,9.22
2023-04-11T16:15:31.855Z,9.01
2023-04-11T16:20:33.875Z,9.12
2023-04-11T16:25:37.714Z,9.44
2023-04-11T16:30:40.512Z,9.96
2023-04-11T16:35:48.712Z,10.24
2023-04-11T16:40:52.144Z,10.44
2023-04-11T16:45:57.115Z,10.67
2023-04-11T16:51:00.934Z,10.64
2023-04-11T16:56:07.332Z,10.61
2023-04-11T17:01:12.515Z,10.46
2023-04-11T17:06:16.799Z,10.37
2023-04-11T17:11:25.527Z,10.35
2023-04-11T17:16:30.394Z,10.23
2023-04-11T17:21:35.221Z,9.89
2023-04-11T17:26:39.094Z,9.59
2023-04-11T17:31:41.174Z,9.56
2023-04-11T17:36:43.030Z,9.33
2023-04-11T17:41:46.772Z,9.18
2023-04-11T17:46:48.744Z,9.04
2023-04-11T17:51:58.881Z,9.01
2023-04-11T17:57:02.897Z,8.94
2023-04-11T18:02:05.429Z,8.84
2023-04-11T18:07:07.186Z,8.64
2023-04-11T18:12:10.886Z,8.42
2023-04-11T18:17:12.852Z,8.17
2023-04-11T18:22:14.743Z,8.05
2023-04-11T18:27:18.204Z,7.84
2023-04-11T18:32:23.113Z,7.79
2023-04-11T18:37:26.837Z,7.63
2023-04-11T18:42:30.316Z,7.57
2023-04-11T18:47:32.559Z,7.42
2023-04-11T18:52:35.059Z,7.43
2023-04-11T18:57:39.600Z,7.43
2023-04-11T19:02:42.295Z,7.28
2023-04-11T19:07:44.781Z,7.15
2023-04-11T19:12:48.922Z,6.99
2023-04-11T19:17:52.284Z,6.77
2023-04-11T19:22:55.067Z,6.65
2023-04-11T19:27:59.240Z,6.46
2023-04-11T19:33:01.936Z,6.47
2023-04-11T19:38:04.317Z,6.38
2023-04-11T19:43:08.651Z,6.26
2023-04-11T19:48:12.637Z,6.16
2023-04-11T19:53:15.541Z,6.06
2023-04-11T19:58:19.632Z,6.01
2023-04-11T20:03:22.937Z,5.83
2023-04-11T20:08:25.921Z,5.71
2023-04-11T20:13:30.273Z,5.55
2023-04-11T20:18:34.888Z,5.32
2023-04-11T20:23:37.621Z,5.24
2023-04-11T20:28:41.662Z,5.09
2023-04-11T20:33:44.240Z,4.96
2023-04-11T20:38:47.064Z,4.80
2023-04-11T20:43:53.701Z,4.73
2023-04-11T20:48:55.934Z,4.43
2023-04-11T20:53:58.461Z,4.21
2023-04-11T20:59:02.212Z,4.07
2023-04-11T21:04:07.869Z,3.94
2023-04-11T21:09:09.662Z,3.86
2023-04-11T21:14:13.059Z,3.78
2023-04-11T21:19:15.465Z,3.76
2023-04-11T21:24:17.557Z,3.49
2023-04-11T21:29:20.572Z,3.44
2023-04-11T21:34:22.370Z,3.40
2023-04-11T21:39:24.112Z,3.36
2023-04-11T21:44:27.494Z,3.23
2023-04-11T21:49:29.756Z,3.33
2023-04-11T21:54:33.627Z,3.13
2023-04-11T21:59:37.551Z,3.06
2023-04-11T22:04:51.137Z,2.78
2023-04-11T22:09:54.084Z,2.79
2023-04-11T22:14:57.401Z,2.54
2023-04-11T22:20:00.057Z,2.64
2023-04-11T22:25:02.203Z,2.74
2023-04-11T22:30:07.229Z,2.82
2023-04-11T22:35:09.716Z,2.75
2023-04-11T22:40:12.140Z,2.60
2023-04-11T22:45:15.825Z,2.38
2023-04-11T22:50:17.612Z,2.34
2023-04-11T22:55:19.511Z,2.29
2023-04-11T23:00:23.146Z,2.38
2023-04-11T23:05:24.941Z,2.25
2023-04-11T23:10:26.961Z,2.06
2023-04-11T23:15:30.635Z,2.12
2023-04-11T23:20:35.173Z,1.96
2023-04-11T23:25:38.717Z,1.88
2023-04-11T23:30:42.121Z,1.96
2023-04-11T23:35:44.196Z,1.98
2023-04-11T23:40:46.421Z,1.80
2023-04-11T23:45:50.173Z,1.69
2023-04-11T23:50:52.316Z,1.75
2023-04-11T23:55:54.628Z,1.74
